sensor_id;sensor_type;location;lat;lon;timestamp;pressure;altitude;pressure_sealevel;temperature;humidity
74433;BME280;62865;53.146;23.172;2023-04-15T00:01:29;1019.4;;;11.5;72
74433;BME280;62865;53.146;23.172;2023-04-15T00:06:17;1019.4;;;11.6;71.6
74433;BME280;62865;53.146;23.172;2023-04-15T00:11:29;1019.4;;;11.6;71.4
74433;BME280;62865;53.146;23.172;2023-04-15T00:16:37;1019.4;;;11.5;71.4
74433;BME280;62865;53.146;23.172;2023-04-15T00:21:37;1019.4;;;11.6;71.1
74433;BME280;62865;53.146;23.172;2023-04-15T00:26:29;1019.4;;;11.7;70.8
74433;BME280;62865;53.146;23.172;2023-04-15T00:31:27;1019.3;;;11.7;70.5
74433;BME280;62865;53.146;23.172;2023-04-15T00:36:17;1019.3;;;11.6;70.8
74433;BME280;62865;53.146;23.172;2023-04-15T00:41:49;1019.3;;;11.6;70.9
74433;BME280;62865;53.146;23.172;2023-04-15T00:46:37;1019.3;;;11.6;70.9
74433;BME280;62865;53.146;23.172;2023-04-15T00:51:29;1019.2;;;11.5;70.9
74433;BME280;62865;53.146;23.172;2023-04-15T00:56:07;1019.2;;;11.4;71.1
74433;BME280;62865;53.146;23.172;2023-04-15T01:01:29;1019.2;;;11.4;71.2
74433;BME280;62865;53.146;23.172;2023-04-15T01:06:51;1019.2;;;11.3;71.6
74433;BME280;62865;53.146;23.172;2023-04-15T01:11:37;1019.3;;;11.3;71.2
74433;BME280;62865;53.146;23.172;2023-04-15T01:16:29;1019.3;;;11.3;71
74433;BME280;62865;53.146;23.172;2023-04-15T01:21:17;1019.4;;;11.3;71.1
74433;BME280;62865;53.146;23.172;2023-04-15T01:26:43;1019.4;;;11.4;70.9
74433;BME280;62865;53.146;23.172;2023-04-15T01:31:49;1019.4;;;11.4;70.9
74433;BME280;62865;53.146;23.172;2023-04-15T01:36:25;1019.4;;;11.4;70.9
74433;BME280;62865;53.146;23.172;2023-04-15T01:41:41;1019.4;;;11.4;70.8
74433;BME280;62865;53.146;23.172;2023-04-15T01:46:19;1019.3;;;11.4;70.8
74433;BME280;62865;53.146;23.172;2023-04-15T01:51:07;1019.4;;;11.4;70.9
74433;BME280;62865;53.146;23.172;2023-04-15T01:56:47;1019.4;;;11.4;71
74433;BME280;62865;53.146;23.172;2023-04-15T02:01:35;1019.4;;;11.4;71.1
74433;BME280;62865;53.146;23.172;2023-04-15T02:06:49;1019.4;;;11.4;71.2
74433;BME280;62865;53.146;23.172;2023-04-15T02:11:07;1019.4;;;11.4;71.3
74433;BME280;62865;53.146;23.172;2023-04-15T02:16:27;1019.4;;;11.4;71.5
74433;BME280;62865;53.146;23.172;2023-04-15T02:21:47;1019.3;;;11.4;71.5
74433;BME280;62865;53.146;23.172;2023-04-15T02:26:35;1019.3;;;11.3;71.6
74433;BME280;62865;53.146;23.172;2023-04-15T02:31:49;1019.3;;;11.3;71.9
74433;BME280;62865;53.146;23.172;2023-04-15T02:36:15;1019.4;;;11.3;72
74433;BME280;62865;53.146;23.172;2023-04-15T02:41:27;1019.3;;;11.3;71.8
74433;BME280;62865;53.146;23.172;2023-04-15T02:46:49;1019.3;;;11.3;71.8
74433;BME280;62865;53.146;23.172;2023-04-15T02:51:25;1019.3;;;11.2;71.9
74433;BME280;62865;53.146;23.172;2023-04-15T02:56:49;1019.3;;;11.2;71.9
74433;BME280;62865;53.146;23.172;2023-04-15T03:01:27;1019.3;;;11.3;71.7
74433;BME280;62865;53.146;23.172;2023-04-15T03:06:07;1019.3;;;11.3;71.7
74433;BME280;62865;53.146;23.172;2023-04-15T03:11:51;1019.3;;;11.2;71.7
74433;BME280;62865;53.146;23.172;2023-04-15T03:16:33;1019.4;;;11.2;71.6
74433;BME280;62865;53.146;23.172;2023-04-15T03:21:47;1019.4;;;11.2;71.6
74433;BME280;62865;53.146;23.172;2023-04-15T03:26:07;1019.4;;;11.2;71.6
74433;BME280;62865;53.146;23.172;2023-04-15T03:31:29;1019.4;;;11.2;71.5
74433;BME280;62865;53.146;23.172;2023-04-15T03:36:51;1019.4;;;11.1;71.5
74433;BME280;62865;53.146;23.172;2023-04-15T03:41:35;1019.4;;;11.1;71.6
74433;BME280;62865;53.146;23.172;2023-04-15T03:46:43;1019.5;;;11.1;71.6
74433;BME280;62865;53.146;23.172;2023-04-15T03:51:07;1019.5;;;11.1;71.7
74433;BME280;62865;53.146;23.172;2023-04-15T03:56:15;1019.5;;;11.1;71.7
74433;BME280;62865;53.146;23.172;2023-04-15T04:06:35;1019.5;;;11.2;71.6
74433;BME280;62865;53.146;23.172;2023-04-15T04:11:49;1019.5;;;11.2;71.4
74433;BME280;62865;53.146;23.172;2023-04-15T04:16:15;1019.5;;;11.2;71.6
74433;BME280;62865;53.146;23.172;2023-04-15T04:21:27;1019.6;;;11.3;71.5
74433;BME280;62865;53.146;23.172;2023-04-15T04:26:49;1019.6;;;11.3;71.4
74433;BME280;62865;53.146;23.172;2023-04-15T04:31:35;1019.6;;;11.3;71.4
74433;BME280;62865;53.146;23.172;2023-04-15T04:36:49;1019.5;;;11.3;71.4
74433;BME280;62865;53.146;23.172;2023-04-15T04:41:07;1019.5;;;11.3;71.3
74433;BME280;62865;53.146;23.172;2023-04-15T04:46:27;1019.5;;;11.3;71.6
74433;BME280;62865;53.146;23.172;2023-04-15T04:51:51;1019.5;;;11.4;71.7
74433;BME280;62865;53.146;23.172;2023-04-15T04:56:29;1019.5;;;11.4;71.8
74433;BME280;62865;53.146;23.172;2023-04-15T05:01:49;1019.5;;;11.4;71.8
74433;BME280;62865;53.146;23.172;2023-04-15T05:06:15;1019.6;;;11.4;71.6
74433;BME280;62865;53.146;23.172;2023-04-15T05:11:49;1019.6;;;11.4;71.4
74433;BME280;62865;53.146;23.172;2023-04-15T05:16:17;1019.7;;;11.4;71.5
74433;BME280;62865;53.146;23.172;2023-04-15T05:21:29;1019.6;;;11.4;71.5
74433;BME280;62865;53.146;23.172;2023-04-15T05:26:49;1019.6;;;11.4;71.3
74433;BME280;62865;53.146;23.172;2023-04-15T05:31:19;1019.7;;;11.4;71.2
74433;BME280;62865;53.146;23.172;2023-04-15T05:36:19;1019.7;;;11.3;71.2
74433;BME280;62865;53.146;23.172;2023-04-15T05:41:51;1019.6;;;11.3;71
74433;BME280;62865;53.146;23.172;2023-04-15T05:46:35;1019.6;;;11.2;70.9
74433;BME280;62865;53.146;23.172;2023-04-15T05:51:49;1019.6;;;11.3;71
74433;BME280;62865;53.146;23.172;2023-04-15T05:56:15;1019.6;;;11.4;70.8
74433;BME280;62865;53.146;23.172;2023-04-15T06:01:51;1019.6;;;11.5;70.5
74433;BME280;62865;53.146;23.172;2023-04-15T06:06:07;1019.6;;;11.4;70.3
74433;BME280;62865;53.146;23.172;2023-04-15T06:11:27;1019.6;;;11.5;70.2
74433;BME280;62865;53.146;23.172;2023-04-15T06:16:49;1019.6;;;11.4;70.2
74433;BME280;62865;53.146;23.172;2023-04-15T06:21:07;1019.6;;;11.5;69.8
74433;BME280;62865;53.146;23.172;2023-04-15T06:26:49;1019.6;;;11.6;69.4
74433;BME280;62865;53.146;23.172;2023-04-15T06:31:07;1019.6;;;11.6;69.2
74433;BME280;62865;53.146;23.172;2023-04-15T06:36:07;1019.6;;;11.6;69
74433;BME280;62865;53.146;23.172;2023-04-15T06:41:35;1019.7;;;11.7;68.7
74433;BME280;62865;53.146;23.172;2023-04-15T06:46:27;1019.7;;;11.8;68.3
74433;BME280;62865;53.146;23.172;2023-04-15T06:51:49;1019.8;;;11.7;68.4
74433;BME280;62865;53.146;23.172;2023-04-15T06:56:06;1019.8;;;11.7;68.4
74433;BME280;62865;53.146;23.172;2023-04-15T07:01:15;1019.9;;;11.7;68.2
74433;BME280;62865;53.146;23.172;2023-04-15T07:06:37;1019.9;;;11.7;68.3
74433;BME280;62865;53.146;23.172;2023-04-15T07:11:07;1020;;;11.7;68.2
74433;BME280;62865;53.146;23.172;2023-04-15T07:16:51;1020;;;11.8;67.8
74433;BME280;62865;53.146;23.172;2023-04-15T07:21:24;1020;;;11.8;67.6
74433;BME280;62865;53.146;23.172;2023-04-15T07:26:15;1020;;;11.7;67.6
74433;BME280;62865;53.146;23.172;2023-04-15T07:31:38;1020.1;;;11.9;67.4
74433;BME280;62865;53.146;23.172;2023-04-15T07:36:15;1020.1;;;12;66.9
74433;BME280;62865;53.146;23.172;2023-04-15T07:41:33;1020.1;;;12.1;66.8
74433;BME280;62865;53.146;23.172;2023-04-15T07:46:05;1020.1;;;12.2;66.5
74433;BME280;62865;53.146;23.172;2023-04-15T07:51:25;1020.1;;;12.2;66.2
74433;BME280;62865;53.146;23.172;2023-04-15T07:56:35;1020.1;;;12.2;66.2
74433;BME280;62865;53.146;23.172;2023-04-15T08:01:15;1020.1;;;12.2;66.6
74433;BME280;62865;53.146;23.172;2023-04-15T08:06:31;1020.1;;;12.2;67
74433;BME280;62865;53.146;23.172;2023-04-15T08:11:15;1020.1;;;12.2;66.8
74433;BME280;62865;53.146;23.172;2023-04-15T08:16:41;1020.2;;;12.1;67.4
74433;BME280;62865;53.146;23.172;2023-04-15T08:21:35;1020.2;;;12;68.1
74433;BME280;62865;53.146;23.172;2023-04-15T08:26:15;1020.3;;;12;68.1
74433;BME280;62865;53.146;23.172;2023-04-15T08:31:50;1020.3;;;12;68.4
74433;BME280;62865;53.146;23.172;2023-04-15T08:36:07;1020.3;;;11.9;69
74433;BME280;62865;53.146;23.172;2023-04-15T08:41:45;1020.3;;;11.9;69.2
74433;BME280;62865;53.146;23.172;2023-04-15T08:46:17;1020.4;;;12;69.2
74433;BME280;62865;53.146;23.172;2023-04-15T08:51:15;1020.4;;;12.1;69.1
74433;BME280;62865;53.146;23.172;2023-04-15T08:56:49;1020.4;;;12.2;68.6
74433;BME280;62865;53.146;23.172;2023-04-15T09:01:15;1020.4;;;12.3;68.3
74433;BME280;62865;53.146;23.172;2023-04-15T09:06:19;1020.4;;;12.3;68.8
74433;BME280;62865;53.146;23.172;2023-04-15T09:11:37;1020.5;;;12.4;69.1
74433;BME280;62865;53.146;23.172;2023-04-15T09:16:21;1020.5;;;12.4;68.8
74433;BME280;62865;53.146;23.172;2023-04-15T09:21:49;1020.5;;;12.5;68.2
74433;BME280;62865;53.146;23.172;2023-04-15T09:26:07;1020.5;;;12.5;68.4
74433;BME280;62865;53.146;23.172;2023-04-15T09:31:07;1020.5;;;12.3;69
74433;BME280;62865;53.146;23.172;2023-04-15T09:36:37;1020.5;;;12;70
74433;BME280;62865;53.146;23.172;2023-04-15T09:41:15;1020.6;;;11.8;70.8
74433;BME280;62865;53.146;23.172;2023-04-15T09:46:51;1020.6;;;11.8;71.8
74433;BME280;62865;53.146;23.172;2023-04-15T09:51:15;1020.7;;;11.6;72.3
74433;BME280;62865;53.146;23.172;2023-04-15T09:56:31;1020.7;;;11.5;72.7
74433;BME280;62865;53.146;23.172;2023-04-15T10:01:37;1020.8;;;11.5;73.2
74433;BME280;62865;53.146;23.172;2023-04-15T10:06:27;1020.8;;;11.5;73.4
74433;BME280;62865;53.146;23.172;2023-04-15T10:11:41;1020.8;;;11.7;72.8
74433;BME280;62865;53.146;23.172;2023-04-15T10:16:09;1020.8;;;11.7;73
74433;BME280;62865;53.146;23.172;2023-04-15T10:21:27;1020.9;;;11.6;73.7
74433;BME280;62865;53.146;23.172;2023-04-15T10:26:49;1020.9;;;11.6;73.6
74433;BME280;62865;53.146;23.172;2023-04-15T10:31:27;1020.9;;;11.6;73.8
74433;BME280;62865;53.146;23.172;2023-04-15T10:36:41;1021;;;11.6;74
74433;BME280;62865;53.146;23.172;2023-04-15T10:41:11;1020.9;;;11.7;73.5
74433;BME280;62865;53.146;23.172;2023-04-15T10:46:33;1021;;;11.8;73.6
74433;BME280;62865;53.146;23.172;2023-04-15T10:51:50;1021;;;11.9;73.4
74433;BME280;62865;53.146;23.172;2023-04-15T10:56:35;1021;;;11.9;73.1
74433;BME280;62865;53.146;23.172;2023-04-15T11:01:49;1021;;;12;72.8
74433;BME280;62865;53.146;23.172;2023-04-15T11:06:15;1021;;;12;72.9
74433;BME280;62865;53.146;23.172;2023-04-15T11:11:19;1021;;;11.9;73.3
74433;BME280;62865;53.146;23.172;2023-04-15T11:16:49;1020.9;;;11.9;72.8
74433;BME280;62865;53.146;23.172;2023-04-15T11:21:19;1020.9;;;11.9;72.9
74433;BME280;62865;53.146;23.172;2023-04-15T11:26:41;1021;;;11.8;73.2
74433;BME280;62865;53.146;23.172;2023-04-15T11:31:08;1020.9;;;11.8;72.9
74433;BME280;62865;53.146;23.172;2023-04-15T11:36:29;1021;;;11.7;72.6
74433;BME280;62865;53.146;23.172;2023-04-15T11:41:51;1021;;;11.7;73
74433;BME280;62865;53.146;23.172;2023-04-15T11:46:19;1021;;;11.8;72.8
74433;BME280;62865;53.146;23.172;2023-04-15T11:51:41;1021;;;11.8;72.7
74433;BME280;62865;53.146;23.172;2023-04-15T11:56:16;1021.1;;;12;72.4
74433;BME280;62865;53.146;23.172;2023-04-15T12:01:31;1021.1;;;12.1;71.4
74433;BME280;62865;53.146;23.172;2023-04-15T12:06:49;1021.1;;;12.3;70.7
74433;BME280;62865;53.146;23.172;2023-04-15T12:11:29;1021.1;;;12;71.1
74433;BME280;62865;53.146;23.172;2023-04-15T12:16:40;1021.1;;;12;71.1
74433;BME280;62865;53.146;23.172;2023-04-15T12:21:22;1021.2;;;12;71
74433;BME280;62865;53.146;23.172;2023-04-15T12:26:35;1021.2;;;11.9;70.1
74433;BME280;62865;53.146;23.172;2023-04-15T12:31:48;1021.2;;;11.9;69.7
74433;BME280;62865;53.146;23.172;2023-04-15T12:36:17;1021.2;;;12;69
74433;BME280;62865;53.146;23.172;2023-04-15T12:41:39;1021.2;;;12;69.1
74433;BME280;62865;53.146;23.172;2023-04-15T12:46:15;1021.2;;;11.9;69.8
74433;BME280;62865;53.146;23.172;2023-04-15T12:51:25;1021.2;;;11.8;69.3
74433;BME280;62865;53.146;23.172;2023-04-15T12:56:48;1021.2;;;11.7;69.2
74433;BME280;62865;53.146;23.172;2023-04-15T13:01:47;1021.2;;;11.7;69.3
74433;BME280;62865;53.146;23.172;2023-04-15T13:06:39;1021.3;;;11.6;69.4
74433;BME280;62865;53.146;23.172;2023-04-15T13:11:07;1021.3;;;11.5;70.1
74433;BME280;62865;53.146;23.172;2023-04-15T13:16:25;1021.4;;;11.3;71
74433;BME280;62865;53.146;23.172;2023-04-15T13:21:49;1021.4;;;11.4;71.2
74433;BME280;62865;53.146;23.172;2023-04-15T13:26:07;1021.4;;;11.5;70.9
74433;BME280;62865;53.146;23.172;2023-04-15T13:31:27;1021.5;;;11.5;71.5
74433;BME280;62865;53.146;23.172;2023-04-15T13:36:07;1021.5;;;11.6;71.2
74433;BME280;62865;53.146;23.172;2023-04-15T13:41:17;1021.6;;;11.7;71
74433;BME280;62865;53.146;23.172;2023-04-15T13:51:23;1021.7;;;11;73.2
74433;BME280;62865;53.146;23.172;2023-04-15T13:56:39;1021.8;;;10.7;74.4
74433;BME280;62865;53.146;23.172;2023-04-15T14:01:07;1021.8;;;10.8;74.6
74433;BME280;62865;53.146;23.172;2023-04-15T14:06:17;1021.9;;;10.8;75.6
74433;BME280;62865;53.146;23.172;2023-04-15T14:11:29;1021.9;;;10.9;75.9
74433;BME280;62865;53.146;23.172;2023-04-15T14:16:25;1022;;;11;75.2
74433;BME280;62865;53.146;23.172;2023-04-15T14:21:39;1022;;;10.9;75.1
74433;BME280;62865;53.146;23.172;2023-04-15T14:26:07;1022;;;10.8;75.3
74433;BME280;62865;53.146;23.172;2023-04-15T14:31:39;1022.1;;;10.8;75.5
74433;BME280;62865;53.146;23.172;2023-04-15T14:36:49;1022.1;;;10.7;76.3
74433;BME280;62865;53.146;23.172;2023-04-15T14:41:23;1022.1;;;10.7;76.6
74433;BME280;62865;53.146;23.172;2023-04-15T14:46:39;1022.2;;;10.6;77.4
74433;BME280;62865;53.146;23.172;2023-04-15T14:51:15;1022.2;;;10.6;77.5
74433;BME280;62865;53.146;23.172;2023-04-15T14:56:39;1022.2;;;10.5;77.2
74433;BME280;62865;53.146;23.172;2023-04-15T15:01:47;1022.2;;;10.3;77.2
74433;BME280;62865;53.146;23.172;2023-04-15T15:06:25;1022.3;;;10.3;77.2
74433;BME280;62865;53.146;23.172;2023-04-15T15:11:39;1022.3;;;10.3;76.7
74433;BME280;62865;53.146;23.172;2023-04-15T15:16:21;1022.4;;;10.2;76.2
74433;BME280;62865;53.146;23.172;2023-04-15T15:21:39;1022.4;;;10;76.5
74433;BME280;62865;53.146;23.172;2023-04-15T15:26:47;1022.5;;;10;76.4
74433;BME280;62865;53.146;23.172;2023-04-15T15:31:25;1022.5;;;9.9;75.5
74433;BME280;62865;53.146;23.172;2023-04-15T15:36:39;1022.5;;;9.9;75.2
74433;BME280;62865;53.146;23.172;2023-04-15T15:41:07;1022.5;;;10;74.6
74433;BME280;62865;53.146;23.172;2023-04-15T15:46:38;1022.6;;;10;74.7
74433;BME280;62865;53.146;23.172;2023-04-15T15:51:45;1022.7;;;9.9;73.5
74433;BME280;62865;53.146;23.172;2023-04-15T15:56:25;1022.7;;;9.7;74
74433;BME280;62865;53.146;23.172;2023-04-15T16:01:15;1022.8;;;9.6;75.5
74433;BME280;62865;53.146;23.172;2023-04-15T16:06:07;1022.8;;;9.5;75.4
74433;BME280;62865;53.146;23.172;2023-04-15T16:11:37;1022.8;;;9.5;75.6
74433;BME280;62865;53.146;23.172;2023-04-15T16:16:47;1022.9;;;9.5;75.9
74433;BME280;62865;53.146;23.172;2023-04-15T16:21:15;1022.9;;;9.5;75.7
74433;BME280;62865;53.146;23.172;2023-04-15T16:26:29;1022.9;;;9.5;76.1
74433;BME280;62865;53.146;23.172;2023-04-15T16:31:15;1022.9;;;9.5;76.4
74433;BME280;62865;53.146;23.172;2023-04-15T16:36:39;1022.9;;;9.5;76.6
74433;BME280;62865;53.146;23.172;2023-04-15T16:41:37;1022.9;;;9.5;76.9
74433;BME280;62865;53.146;23.172;2023-04-15T16:46:25;1022.9;;;9.4;77.1
74433;BME280;62865;53.146;23.172;2023-04-15T16:51:21;1023;;;9.4;77.7
74433;BME280;62865;53.146;23.172;2023-04-15T16:56:23;1023;;;9.4;77.8
74433;BME280;62865;53.146;23.172;2023-04-15T17:01:39;1023.1;;;9.3;77.8
74433;BME280;62865;53.146;23.172;2023-04-15T17:06:47;1023.1;;;9.2;78.8
74433;BME280;62865;53.146;23.172;2023-04-15T17:11:26;1023.1;;;9.2;78.9
74433;BME280;62865;53.146;23.172;2023-04-15T17:16:39;1023.2;;;9.1;78.9
74433;BME280;62865;53.146;23.172;2023-04-15T17:21:15;1023.2;;;9;79.2
74433;BME280;62865;53.146;23.172;2023-04-15T17:26:39;1023.2;;;9;79.2
74433;BME280;62865;53.146;23.172;2023-04-15T17:31:49;1023.2;;;9;78.8
74433;BME280;62865;53.146;23.172;2023-04-15T17:36:25;1023.3;;;9;79
74433;BME280;62865;53.146;23.172;2023-04-15T17:41:09;1023.3;;;9;79.1
74433;BME280;62865;53.146;23.172;2023-04-15T17:46:21;1023.4;;;9;79.2
74433;BME280;62865;53.146;23.172;2023-04-15T17:51:39;1023.5;;;9;79
74433;BME280;62865;53.146;23.172;2023-04-15T17:56:47;1023.5;;;8.9;78.7
74433;BME280;62865;53.146;23.172;2023-04-15T18:01:07;1023.6;;;8.9;78.7
74433;BME280;62865;53.146;23.172;2023-04-15T18:06:39;1023.7;;;8.8;78.6
74433;BME280;62865;53.146;23.172;2023-04-15T18:11:15;1023.8;;;8.8;78.3
74433;BME280;62865;53.146;23.172;2023-04-15T18:16:39;1023.8;;;8.8;78
74433;BME280;62865;53.146;23.172;2023-04-15T18:21:47;1023.9;;;8.8;78
74433;BME280;62865;53.146;23.172;2023-04-15T18:26:26;1023.9;;;8.7;77.8
74433;BME280;62865;53.146;23.172;2023-04-15T18:31:33;1023.9;;;8.7;77.6
74433;BME280;62865;53.146;23.172;2023-04-15T18:36:08;1023.9;;;8.7;77.6
74433;BME280;62865;53.146;23.172;2023-04-15T18:41:39;1024;;;8.7;77.7
74433;BME280;62865;53.146;23.172;2023-04-15T18:46:49;1024;;;8.8;77.2
74433;BME280;62865;53.146;23.172;2023-04-15T18:51:07;1024;;;8.8;77
74433;BME280;62865;53.146;23.172;2023-04-15T18:56:50;1024;;;8.8;76.8
74433;BME280;62865;53.146;23.172;2023-04-15T19:01:07;1024.1;;;8.7;76.8
74433;BME280;62865;53.146;23.172;2023-04-15T19:06:40;1024.1;;;8.7;76.6
74433;BME280;62865;53.146;23.172;2023-04-15T19:11:48;1024.1;;;8.7;77
74433;BME280;62865;53.146;23.172;2023-04-15T19:16:23;1024.1;;;8.7;77.2
74433;BME280;62865;53.146;23.172;2023-04-15T19:21:46;1024.1;;;8.7;77.3
74433;BME280;62865;53.146;23.172;2023-04-15T19:26:16;1024.1;;;8.7;77.2
74433;BME280;62865;53.146;23.172;2023-04-15T19:31:38;1024.1;;;8.6;77.4
74433;BME280;62865;53.146;23.172;2023-04-15T19:36:36;1024.1;;;8.6;77.8
74433;BME280;62865;53.146;23.172;2023-04-15T19:41:28;1024.1;;;8.6;77.7
74433;BME280;62865;53.146;23.172;2023-04-15T19:46:48;1024.1;;;8.5;77.3
74433;BME280;62865;53.146;23.172;2023-04-15T19:51:08;1024.1;;;8.5;77.3
74433;BME280;62865;53.146;23.172;2023-04-15T19:56:40;1024.2;;;8.4;77.1
74433;BME280;62865;53.146;23.172;2023-04-15T20:01:48;1024.2;;;8.3;77.5
74433;BME280;62865;53.146;23.172;2023-04-15T20:06:26;1024.2;;;8.4;77.5
74433;BME280;62865;53.146;23.172;2023-04-15T20:11:48;1024.2;;;8.3;77.7
74433;BME280;62865;53.146;23.172;2023-04-15T20:16:22;1024.2;;;8.3;77.5
74433;BME280;62865;53.146;23.172;2023-04-15T20:21:38;1024.2;;;8.2;77.8
74433;BME280;62865;53.146;23.172;2023-04-15T20:26:48;1024.2;;;8.2;77.5
74433;BME280;62865;53.146;23.172;2023-04-15T20:31:26;1024.2;;;8.1;77.2
74433;BME280;62865;53.146;23.172;2023-04-15T20:36:48;1024.2;;;8;77.2
74433;BME280;62865;53.146;23.172;2023-04-15T20:41:08;1024.2;;;8;77.9
74433;BME280;62865;53.146;23.172;2023-04-15T20:46:40;1024.2;;;8;77.6
74433;BME280;62865;53.146;23.172;2023-04-15T20:51:48;1024.2;;;8;77
74433;BME280;62865;53.146;23.172;2023-04-15T20:56:08;1024.2;;;7.9;76.6
74433;BME280;62865;53.146;23.172;2023-04-15T21:01:50;1024.2;;;7.8;76.9
74433;BME280;62865;53.146;23.172;2023-04-15T21:06:22;1024.2;;;7.7;76.9
74433;BME280;62865;53.146;23.172;2023-04-15T21:11:40;1024.2;;;7.5;77.1
74433;BME280;62865;53.146;23.172;2023-04-15T21:16:46;1024.2;;;7.2;78
74433;BME280;62865;53.146;23.172;2023-04-15T21:21:24;1024.2;;;7.2;78.5
74433;BME280;62865;53.146;23.172;2023-04-15T21:26:50;1024.2;;;7.2;77.8
74433;BME280;62865;53.146;23.172;2023-04-15T21:31:16;1024.3;;;7.2;77.7
74433;BME280;62865;53.146;23.172;2023-04-15T21:36:28;1024.3;;;7.1;77.7
74433;BME280;62865;53.146;23.172;2023-04-15T21:41:50;1024.3;;;7.2;77.8
74433;BME280;62865;53.146;23.172;2023-04-15T21:46:26;1024.3;;;7.1;78
74433;BME280;62865;53.146;23.172;2023-04-15T21:51:48;1024.3;;;7.2;78.3
74433;BME280;62865;53.146;23.172;2023-04-15T21:56:16;1024.3;;;7.2;78.6
74433;BME280;62865;53.146;23.172;2023-04-15T22:01:40;1024.3;;;7.2;78.6
74433;BME280;62865;53.146;23.172;2023-04-15T22:06:48;1024.4;;;7.3;78.7
74433;BME280;62865;53.146;23.172;2023-04-15T22:11:18;1024.4;;;7.3;79
74433;BME280;62865;53.146;23.172;2023-04-15T22:16:48;1024.4;;;7.4;79.2
74433;BME280;62865;53.146;23.172;2023-04-15T22:21:08;1024.4;;;7.4;79.3
74433;BME280;62865;53.146;23.172;2023-04-15T22:26:40;1024.4;;;7.4;78.8
74433;BME280;62865;53.146;23.172;2023-04-15T22:31:46;1024.5;;;7.4;78.5
74433;BME280;62865;53.146;23.172;2023-04-15T22:36:08;1024.5;;;7.3;78.7
74433;BME280;62865;53.146;23.172;2023-04-15T22:41:46;1024.5;;;7.3;78.7
74433;BME280;62865;53.146;23.172;2023-04-15T22:46:16;1024.6;;;7.2;78.9
74433;BME280;62865;53.146;23.172;2023-04-15T22:51:40;1024.6;;;7.2;78.8
74433;BME280;62865;53.146;23.172;2023-04-15T22:56:17;1024.6;;;7.2;78.8
74433;BME280;62865;53.146;23.172;2023-04-15T23:01:50;1024.6;;;7.2;78.5
74433;BME280;62865;53.146;23.172;2023-04-15T23:06:08;1024.5;;;7.2;78.4
74433;BME280;62865;53.146;23.172;2023-04-15T23:11:26;1024.5;;;7.2;77.4
74433;BME280;62865;53.146;23.172;2023-04-15T23:16:38;1024.5;;;7.2;77.2
74433;BME280;62865;53.146;23.172;2023-04-15T23:21:08;1024.5;;;7.1;77.2
74433;BME280;62865;53.146;23.172;2023-04-15T23:26:48;1024.6;;;7.1;78
74433;BME280;62865;53.146;23.172;2023-04-15T23:31:22;1024.6;;;7.2;78
74433;BME280;62865;53.146;23.172;2023-04-15T23:36:22;1024.6;;;7.1;78.3
74433;BME280;62865;53.146;23.172;2023-04-15T23:41:10;1024.5;;;7.1;78.3
74433;BME280;62865;53.146;23.172;2023-04-15T23:46:16;1024.5;;;7;78.9
74433;BME280;62865;53.146;23.172;2023-04-15T23:51:36;1024.6;;;7;78.9
74433;BME280;62865;53.146;23.172;2023-04-15T23:56:14;1024.6;;;7;78.3
